createdAt,value
2018-06-21T00:00:02.795Z,1015.12
2018-06-21T00:05:02.920Z,1015.1
2018-06-21T00:10:03.626Z,1015.02
2018-06-21T00:15:03.305Z,1015.02
2018-06-21T00:20:02.928Z,1014.89
2018-06-21T00:25:03.716Z,1014.84
2018-06-21T00:30:03.409Z,1014.74
2018-06-21T00:35:02.984Z,1014.67
2018-06-21T00:40:03.606Z,1014.65
2018-06-21T00:45:03.192Z,1014.58
2018-06-21T00:50:02.811Z,1014.56
2018-06-21T00:55:03.409Z,1014.42
2018-06-21T01:00:03.076Z,1014.35
2018-06-21T01:05:02.656Z,1014.33
2018-06-21T01:10:03.315Z,1014.44
2018-06-21T01:15:02.987Z,1014.32
2018-06-21T01:20:03.778Z,1014.29
2018-06-21T01:25:03.520Z,1014.3
2018-06-21T01:30:03.286Z,1014.3
2018-06-21T01:35:03.089Z,1014.32
2018-06-21T01:40:02.866Z,1014.26
2018-06-21T01:45:03.824Z,1014.11
2018-06-21T01:50:03.569Z,1014.08
2018-06-21T01:55:03.318Z,1014.03
2018-06-21T02:00:03.015Z,1013.97
2018-06-21T02:05:03.812Z,1013.8
2018-06-21T02:10:03.585Z,1013.79
2018-06-21T02:15:03.498Z,1013.79
2018-06-21T02:20:03.287Z,1013.8
2018-06-21T02:25:03.029Z,1013.83
2018-06-21T02:30:03.747Z,1013.78
2018-06-21T02:35:03.541Z,1013.61
2018-06-21T02:40:03.294Z,1013.46
2018-06-21T02:45:03.015Z,1013.5
2018-06-21T02:50:03.724Z,1013.52
2018-06-21T02:55:03.470Z,1013.44
2018-06-21T03:00:03.961Z,1013.33
2018-06-21T03:05:04.103Z,1013.19
2018-06-21T03:10:03.061Z,1013.19
2018-06-21T03:15:03.792Z,1013.12
2018-06-21T03:20:03.555Z,1013.08
2018-06-21T03:25:03.295Z,1013.17
2018-06-21T03:30:02.986Z,1013.21
2018-06-21T03:35:03.743Z,1013.21
2018-06-21T03:40:03.538Z,1013.11
2018-06-21T03:45:03.309Z,1013.08
2018-06-21T03:50:03.282Z,1013.11
2018-06-21T03:55:02.956Z,1013.03
2018-06-21T04:00:03.648Z,1013.2
2018-06-21T04:05:03.418Z,1013.27
2018-06-21T04:10:03.160Z,1013.19
2018-06-21T04:15:02.921Z,1013.27
2018-06-21T04:20:03.694Z,1013.25
2018-06-21T04:25:03.428Z,1013.14
2018-06-21T04:30:03.402Z,1013.2
2018-06-21T04:35:03.166Z,1013.23
2018-06-21T04:40:02.952Z,1013.35
2018-06-21T04:45:03.680Z,1013.59
2018-06-21T04:50:03.345Z,1013.63
2018-06-21T04:55:03.052Z,1013.58
2018-06-21T05:00:03.013Z,1013.48
2018-06-21T05:05:02.882Z,1013.5
2018-06-21T05:10:03.711Z,1013.72
2018-06-21T05:15:03.429Z,1013.65
2018-06-21T05:20:03.238Z,1013.66
2018-06-21T05:25:03.313Z,1013.68
2018-06-21T05:30:02.946Z,1013.7
2018-06-21T05:35:03.505Z,1013.76
2018-06-21T05:40:03.057Z,1013.75
2018-06-21T05:45:03.677Z,1013.81
2018-06-21T05:50:03.286Z,1013.79
2018-06-21T05:55:02.888Z,1013.92
2018-06-21T06:00:03.463Z,1014
2018-06-21T06:05:03.036Z,1013.95
2018-06-21T06:10:04.000Z,1014.04
2018-06-21T06:15:03.725Z,1014.11
2018-06-21T06:20:03.866Z,1014.11
2018-06-21T06:25:03.589Z,1013.97
2018-06-21T06:30:03.210Z,1014.17
2018-06-21T06:35:02.812Z,1014.39
2018-06-21T06:40:03.440Z,1014.56
2018-06-21T06:45:03.012Z,1014.69
2018-06-21T06:50:03.605Z,1014.73
2018-06-21T06:55:03.253Z,1014.82
2018-06-21T07:00:02.858Z,1014.87
2018-06-21T07:05:03.444Z,1015.04
2018-06-21T07:10:03.119Z,1015.05
2018-06-21T07:15:03.692Z,1015.07
2018-06-21T07:20:03.309Z,1015.1
2018-06-21T07:25:02.930Z,1015.21
2018-06-21T07:30:03.531Z,1015.24
2018-06-21T07:35:03.124Z,1015.35
2018-06-21T07:40:02.838Z,1015.43
2018-06-21T07:45:03.508Z,1015.47
2018-06-21T07:50:03.132Z,1015.53
2018-06-21T07:55:02.713Z,1015.68
2018-06-21T08:00:03.424Z,1015.67
2018-06-21T08:05:03.405Z,1015.72
2018-06-21T08:10:03.333Z,1015.67
2018-06-21T08:15:02.970Z,1015.77
2018-06-21T08:20:03.681Z,1015.8
2018-06-21T08:25:03.277Z,1015.66
2018-06-21T08:30:02.917Z,1015.74
2018-06-21T08:35:03.515Z,1015.78
2018-06-21T08:40:03.185Z,1015.66
2018-06-21T08:45:02.761Z,1016.06
2018-06-21T08:50:03.409Z,1016.24
2018-06-21T08:55:02.999Z,1016.46
2018-06-21T09:00:03.607Z,1016.42
2018-06-21T09:05:03.241Z,1016.47
2018-06-21T09:10:02.883Z,1016.51
2018-06-21T09:15:03.469Z,1016.41
2018-06-21T09:20:03.011Z,1016.7
2018-06-21T09:25:03.618Z,1016.87
2018-06-21T09:30:03.228Z,1016.71
2018-06-21T09:35:02.905Z,1016.77
2018-06-21T09:40:03.585Z,1016.79
2018-06-21T09:45:03.198Z,1016.85
2018-06-21T09:50:02.810Z,1016.98
2018-06-21T09:55:03.322Z,1017.09
2018-06-21T10:00:02.989Z,1017.19
2018-06-21T10:05:03.664Z,1017.23
2018-06-21T10:10:03.361Z,1017.22
2018-06-21T10:15:03.012Z,1017.25
2018-06-21T10:20:03.635Z,1017.25
2018-06-21T10:25:03.282Z,1017.35
2018-06-21T10:30:02.883Z,1017.41
2018-06-21T10:35:03.614Z,1017.54
2018-06-21T10:40:03.354Z,1017.66
2018-06-21T10:45:02.935Z,1017.68
2018-06-21T10:50:03.503Z,1017.71
2018-06-21T10:55:03.141Z,1017.83
2018-06-21T11:00:02.717Z,1017.71
2018-06-21T11:05:03.376Z,1017.87
2018-06-21T11:10:02.975Z,1017.99
2018-06-21T11:15:03.622Z,1017.96
2018-06-21T11:20:03.240Z,1018.02
2018-06-21T11:25:02.849Z,1018.13
2018-06-21T11:30:03.461Z,1018.19
2018-06-21T11:35:03.036Z,1018.33
2018-06-21T11:40:02.749Z,1018.21
2018-06-21T11:45:03.387Z,1018.47
2018-06-21T11:50:03.089Z,1018.44
2018-06-21T11:55:03.685Z,1018.57
2018-06-21T12:00:03.276Z,1018.5
2018-06-21T12:05:02.933Z,1018.65
2018-06-21T12:10:03.587Z,1018.54
2018-06-21T12:15:03.303Z,1018.6
2018-06-21T12:20:02.957Z,1018.71
2018-06-21T12:25:03.528Z,1018.77
2018-06-21T12:30:03.145Z,1018.68
2018-06-21T12:35:02.805Z,1018.78
2018-06-21T12:40:03.408Z,1018.72
2018-06-21T12:45:03.047Z,1018.86
2018-06-21T12:50:03.677Z,1018.96
2018-06-21T12:55:03.317Z,1018.96
2018-06-21T13:00:02.943Z,1019.01
2018-06-21T13:05:02.849Z,1018.99
2018-06-21T13:10:03.587Z,1019.17
2018-06-21T13:15:03.151Z,1019.18
2018-06-21T13:20:02.824Z,1019.37
2018-06-21T13:30:03.077Z,1019.38
2018-06-21T13:35:03.674Z,1019.48
2018-06-21T13:40:03.350Z,1019.64
2018-06-21T13:45:02.990Z,1019.64
2018-06-21T13:50:03.721Z,1019.64
2018-06-21T13:55:03.246Z,1019.82
2018-06-21T14:00:02.851Z,1019.88
2018-06-21T14:05:03.501Z,1019.81
2018-06-21T14:10:03.199Z,1019.99
2018-06-21T14:15:02.817Z,1020.06
2018-06-21T14:20:03.490Z,1020.12
2018-06-21T14:25:03.166Z,1020.11
2018-06-21T14:30:03.161Z,1020.04
2018-06-21T14:35:02.858Z,1020.02
2018-06-21T14:40:03.518Z,1020.11
2018-06-21T14:45:03.353Z,1020.15
2018-06-21T14:50:03.017Z,1020.15
2018-06-21T14:55:03.663Z,1020.14
2018-06-21T15:00:03.223Z,1020.17
2018-06-21T15:05:03.108Z,1020.16
2018-06-21T15:10:02.799Z,1020.26
2018-06-21T15:15:03.427Z,1020.27
2018-06-21T15:20:03.088Z,1020.97
2018-06-21T15:25:02.686Z,1021.01
2018-06-21T15:30:03.306Z,1020.94
2018-06-21T15:35:02.912Z,1021
2018-06-21T15:40:03.923Z,1021.08
2018-06-21T15:45:03.601Z,1021.1
2018-06-21T15:50:03.286Z,1021.03
2018-06-21T15:55:02.905Z,1021.05
2018-06-21T16:00:03.648Z,1021.04
2018-06-21T16:05:03.378Z,1021.08
2018-06-21T16:10:03.015Z,1021.24
2018-06-21T16:15:03.584Z,1021.19
2018-06-21T16:20:03.158Z,1021.26
2018-06-21T16:25:02.774Z,1021.24
2018-06-21T16:30:03.392Z,1021.16
2018-06-21T16:35:03.066Z,1021.09
2018-06-21T16:40:02.856Z,1021.25
2018-06-21T16:45:03.550Z,1021.18
2018-06-21T16:50:03.096Z,1021.18
2018-06-21T16:55:03.665Z,1021.26
2018-06-21T17:00:03.386Z,1021.31
2018-06-21T17:05:02.976Z,1021.36
2018-06-21T17:10:03.709Z,1021.39
2018-06-21T17:15:03.396Z,1021.43
2018-06-21T17:20:02.959Z,1021.44
2018-06-21T17:25:03.557Z,1021.47
2018-06-21T17:30:03.193Z,1021.57
2018-06-21T17:35:02.799Z,1021.52
2018-06-21T17:40:03.442Z,1021.64
2018-06-21T17:45:03.012Z,1021.66
2018-06-21T17:50:03.604Z,1021.63
2018-06-21T17:55:03.196Z,1021.67
2018-06-21T18:00:02.771Z,1021.69
2018-06-21T18:05:03.392Z,1021.73
2018-06-21T18:10:03.054Z,1021.82
2018-06-21T18:15:03.694Z,1021.99
2018-06-21T18:20:03.323Z,1022.08
2018-06-21T18:25:02.923Z,1022.14
2018-06-21T18:30:03.510Z,1022.12
2018-06-21T18:35:03.171Z,1022.19
2018-06-21T18:40:02.866Z,1022.22
2018-06-21T18:45:03.463Z,1022.3
2018-06-21T18:50:03.094Z,1022.23
2018-06-21T18:55:03.704Z,1022.24
2018-06-21T19:00:03.250Z,1022.23
2018-06-21T19:05:02.856Z,1022.26
2018-06-21T19:10:03.476Z,1022.25
2018-06-21T19:15:03.112Z,1022.3
2018-06-21T19:20:03.663Z,1022.37
2018-06-21T19:25:03.256Z,1022.52
2018-06-21T19:30:03.090Z,1022.45
2018-06-21T19:35:02.733Z,1022.49
2018-06-21T19:40:03.399Z,1022.58
2018-06-21T19:45:02.997Z,1022.54
2018-06-21T19:50:03.618Z,1022.55
2018-06-21T19:55:03.185Z,1022.67
2018-06-21T20:00:02.852Z,1022.74
2018-06-21T20:05:03.635Z,1022.87
2018-06-21T20:10:03.384Z,1022.89
2018-06-21T20:15:02.974Z,1022.95
2018-06-21T20:20:03.552Z,1022.97
2018-06-21T20:25:03.109Z,1022.97
2018-06-21T20:30:02.770Z,1022.99
2018-06-21T20:35:03.400Z,1023
2018-06-21T20:40:03.016Z,1023.04
2018-06-21T20:45:03.639Z,1023.03
2018-06-21T20:50:03.282Z,1023.05
2018-06-21T20:55:02.929Z,1023.03
2018-06-21T21:00:03.533Z,1023.11
2018-06-21T21:05:03.114Z,1023
2018-06-21T21:10:02.867Z,1023.03
2018-06-21T21:15:03.468Z,1023.01
2018-06-21T21:20:03.119Z,1023
2018-06-21T21:25:02.743Z,1023.11
2018-06-21T21:30:03.361Z,1023.04
2018-06-21T21:35:02.944Z,1023.1
2018-06-21T21:40:03.578Z,1023.16
2018-06-21T21:45:03.112Z,1023.03
2018-06-21T21:50:03.682Z,1023.02
2018-06-21T21:55:03.344Z,1023.02
2018-06-21T22:00:02.896Z,1023.02
2018-06-21T22:05:03.508Z,1022.92
2018-06-21T22:10:03.116Z,1022.89
2018-06-21T22:15:02.736Z,1022.75
2018-06-21T22:20:03.448Z,1022.84
2018-06-21T22:25:02.995Z,1022.74
2018-06-21T22:30:03.642Z,1022.76
2018-06-21T22:35:03.186Z,1022.7
2018-06-21T22:40:02.836Z,1022.67
2018-06-21T22:45:03.404Z,1022.78
2018-06-21T22:50:02.989Z,1022.77
2018-06-21T22:55:03.588Z,1022.71
2018-06-21T23:00:03.172Z,1022.61
2018-06-21T23:05:03.323Z,1022.7
2018-06-21T23:10:03.018Z,1022.56
2018-06-21T23:15:03.652Z,1022.61
2018-06-21T23:20:03.265Z,1022.5
2018-06-21T23:25:02.900Z,1022.53
2018-06-21T23:30:03.485Z,1022.55
2018-06-21T23:35:03.143Z,1022.53
2018-06-21T23:40:02.815Z,1022.51
2018-06-21T23:45:03.378Z,1022.55
2018-06-21T23:50:02.934Z,1022.48
2018-06-21T23:55:03.528Z,1022.39
